Apalachicola, FL

4:07 PM EDT on August 22, 2014 (GMT -0400)
Tallahassee Regional | Change Station
CLOSE
Current Station
Airport
Location: Tallahassee,
Elevation: 52 ft
Nearby Weather Stations
Active Advisory: Excessive Heat Warning, Heat Advisory Active Notice: Record Report

Elev 52 ft 30.39 °N, 84.35 °W | Updated 14 minutes ago

Scattered Clouds
Scattered Clouds
99 °F
Feels Like 104 °F
N
5
Wind Variable Wind from Variable

Today
High -- | Low -- °F
--% Chance of Precip.
Yesterday
High -- | Low -- °F
Precip. -- in
7:11 AM 8:13 PM
Waning Crescent, 7% visible
Pressure 30.01 in
Visibility 10.0 miles
Clouds Scattered Clouds 5000 ft
Heat Index 104 °F
Dew Point 68 °F
Humidity 36%
Rainfall 0.00 in
Snow Depth Not available.
UV 7 out of 12
Pollen 7.00 out of 12
Air Quality Not available.
Flu Activity Not available.
METAR KTLH 221953Z VRB04KT 10SM SCT050 37/20 A3001 RMK AO2 SLP160 T03720200 $

More Conditions Fewer Conditions

Pressure 30.01 in
Visibility 10.0 miles
Clouds Scattered Clouds 5000 ft
Heat Index 104 °F
Dew Point 68 °F
Humidity 36%
Rainfall 0.00 in
Snow Depth Not available.
UV 7 out of 12
Pollen 7.00 out of 12
Air Quality Not available.
Flu Activity Not available.
METAR KTLH 221953Z VRB04KT 10SM SCT050 37/20 A3001 RMK AO2 SLP160 T03720200 $

More Conditions Fewer Conditions

10-Day Weather Forecast

Almanac

Astronomy

Aug. 22, 2014 Rise Set
Actual Time 7:11 AM EDT 8:13 PM EDT
Civil Twilight 6:47 AM EDT 8:38 PM EDT
Nautical Twilight 6:17 AM EDT 9:07 PM EDT
Astronomical Twilight 5:47 AM EDT 9:37 PM EDT
Moon 4:39 AM EDT 6:17 PM EDT
Length of Visible Light 13h 51m
Length of Day
13h 01m
Tomorrow will be 1m 37s shorter.
Waning Crescent, 7% of the Moon is Illuminated
Today
Waning Crescent
Aug 25
New
Sep 2
First Quarter
Sep 8
Full
Sep 15
Last Quarter

Today's Extremes

State Highs State Lows

Community

WunderPhotos

Upload Photos

1,746,239 photos uploaded!

Nearby

Snow Depth

Station Depth Elevation
No new snow has been reported.

Earthquake Activity

City Distance Mag. Time & Date
No recent earthquake activity has been reported nearby.
Minimum magnitude displayed is 2.5.

Coastal Water Temperatures

Place Temperature
Panama City, FL 87.1 °F
Panama City Beach, FL 82.9 °F
Apalachicola, FL 89.1 °F

Nearby Weather Stations